createdAt,value
2019-03-18T00:00:29.497Z,8.60
2019-03-18T00:02:56.362Z,8.50
2019-03-18T00:05:22.997Z,8.30
2019-03-18T00:07:49.502Z,8.30
2019-03-18T00:10:16.159Z,8.10
2019-03-18T00:12:42.674Z,8.00
2019-03-18T00:15:09.350Z,8.10
2019-03-18T00:17:36.270Z,7.90
2019-03-18T00:20:04.779Z,7.90
2019-03-18T00:22:31.402Z,8.00
2019-03-18T00:24:58.087Z,8.00
2019-03-18T00:27:24.635Z,8.40
2019-03-18T00:29:51.263Z,8.10
2019-03-18T00:32:17.918Z,7.60
2019-03-18T00:34:44.420Z,8.00
2019-03-18T00:37:11.273Z,8.00
2019-03-18T00:39:38.015Z,7.90
2019-03-18T00:42:04.629Z,8.00
2019-03-18T00:44:31.258Z,8.10
2019-03-18T00:46:58.146Z,8.10
2019-03-18T00:49:24.793Z,7.90
2019-03-18T00:51:51.400Z,7.80
2019-03-18T00:54:18.271Z,7.70
2019-03-18T00:56:44.918Z,7.60
2019-03-18T00:59:11.543Z,7.40
2019-03-18T01:01:38.194Z,7.20
2019-03-18T01:04:04.805Z,7.30
2019-03-18T01:06:31.441Z,7.30
2019-03-18T01:08:57.974Z,7.40
2019-03-18T01:11:24.532Z,7.20
2019-03-18T01:13:51.165Z,7.10
2019-03-18T01:16:17.806Z,7.10
2019-03-18T01:18:44.417Z,7.20
2019-03-18T01:21:10.966Z,7.20
2019-03-18T01:23:37.828Z,7.20
2019-03-18T01:26:04.434Z,7.20
2019-03-18T01:28:30.995Z,7.10
2019-03-18T01:30:57.877Z,7.10
2019-03-18T01:33:24.389Z,7.20
2019-03-18T01:35:51.086Z,7.10
2019-03-18T01:38:17.725Z,7.10
2019-03-18T01:40:44.316Z,7.10
2019-03-18T01:43:10.859Z,7.00
2019-03-18T01:45:40.978Z,6.90
2019-03-18T01:48:05.893Z,7.00
2019-03-18T01:50:34.317Z,6.90
2019-03-18T01:53:00.871Z,6.80
2019-03-18T01:55:27.481Z,6.60
2019-03-18T01:57:54.207Z,6.60
2019-03-18T02:00:20.828Z,6.60
2019-03-18T02:02:47.434Z,6.50
2019-03-18T02:05:14.060Z,6.40
2019-03-18T02:07:40.929Z,6.30
2019-03-18T02:10:14.973Z,6.30
2019-03-18T02:12:41.716Z,6.30
2019-03-18T02:15:10.158Z,6.40
2019-03-18T02:17:36.784Z,6.40
2019-03-18T02:20:11.232Z,6.50
2019-03-18T02:22:37.777Z,6.20
2019-03-18T02:25:06.204Z,6.20
2019-03-18T02:27:33.039Z,6.20
2019-03-18T02:30:00.286Z,6.00
2019-03-18T02:32:27.139Z,6.10
2019-03-18T02:34:53.784Z,6.00
2019-03-18T02:37:20.322Z,6.00
2019-03-18T02:39:47.148Z,6.00
2019-03-18T02:42:14.147Z,5.90
2019-03-18T02:44:40.801Z,5.80
2019-03-18T02:47:07.711Z,5.80
2019-03-18T02:49:34.230Z,5.90
2019-03-18T02:52:00.780Z,5.10
2019-03-18T02:54:27.312Z,6.00
2019-03-18T02:56:53.824Z,5.90
2019-03-18T02:59:20.781Z,5.80
2019-03-18T03:01:47.286Z,5.80
2019-03-18T03:04:14.044Z,5.70
2019-03-18T03:06:40.589Z,5.70
2019-03-18T03:09:07.195Z,5.80
2019-03-18T03:11:34.468Z,5.70
2019-03-18T03:14:01.429Z,5.70
2019-03-18T03:16:28.124Z,5.60
2019-03-18T03:18:54.631Z,5.60
2019-03-18T03:21:21.632Z,5.50
2019-03-18T03:23:48.247Z,5.50
2019-03-18T03:26:14.861Z,5.50
2019-03-18T03:28:41.567Z,5.30
2019-03-18T03:31:08.194Z,5.40
2019-03-18T03:33:34.822Z,5.20
2019-03-18T03:36:01.354Z,5.00
2019-03-18T03:38:27.981Z,5.10
2019-03-18T03:40:54.601Z,5.30
2019-03-18T03:43:21.695Z,5.30
2019-03-18T03:45:48.208Z,5.30
2019-03-18T03:48:14.725Z,5.30
2019-03-18T03:50:41.385Z,5.30
2019-03-18T03:53:07.911Z,5.40
2019-03-18T03:55:34.592Z,5.30
2019-03-18T03:58:01.133Z,5.30
2019-03-18T04:00:27.781Z,5.30
2019-03-18T04:02:54.417Z,5.30
2019-03-18T04:05:21.067Z,5.40
2019-03-18T04:07:47.716Z,5.40
2019-03-18T04:10:14.128Z,5.40
2019-03-18T04:12:40.655Z,5.50
2019-03-18T04:15:09.385Z,5.40
2019-03-18T04:17:36.004Z,5.40
2019-03-18T04:20:04.962Z,5.40
2019-03-18T04:22:31.710Z,5.50
2019-03-18T04:24:58.238Z,5.40
2019-03-18T04:27:25.239Z,5.50
2019-03-18T04:29:52.024Z,5.40
2019-03-18T04:32:38.412Z,5.40
2019-03-18T04:35:05.042Z,5.60
2019-03-18T04:37:31.689Z,5.20
2019-03-18T04:39:58.325Z,5.10
2019-03-18T04:42:24.934Z,5.00
2019-03-18T04:44:51.831Z,5.00
2019-03-18T04:47:18.347Z,5.10
2019-03-18T04:49:44.970Z,5.10
2019-03-18T04:52:11.590Z,5.10
2019-03-18T04:54:38.244Z,5.20
2019-03-18T04:57:04.760Z,5.20
2019-03-18T04:59:31.266Z,5.20
2019-03-18T05:01:57.960Z,5.20
2019-03-18T05:04:24.480Z,5.20
2019-03-18T05:06:50.981Z,4.80
2019-03-18T05:09:17.660Z,4.70
2019-03-18T05:11:44.289Z,4.60
2019-03-18T05:14:10.927Z,4.60
2019-03-18T05:16:37.870Z,4.50
2019-03-18T05:19:04.390Z,4.40
2019-03-18T05:21:31.050Z,4.50
2019-03-18T05:23:58.043Z,4.40
2019-03-18T05:26:24.649Z,4.30
2019-03-18T05:28:51.267Z,3.40
2019-03-18T05:31:17.947Z,4.30
2019-03-18T05:33:44.349Z,4.30
2019-03-18T05:36:10.980Z,4.20
2019-03-18T05:38:37.666Z,4.20
2019-03-18T05:41:04.281Z,4.10
2019-03-18T05:43:30.911Z,4.10
2019-03-18T05:45:57.779Z,4.00
2019-03-18T05:48:24.311Z,4.00
2019-03-18T05:50:50.702Z,4.00
2019-03-18T05:53:17.706Z,3.90
2019-03-18T05:55:44.422Z,3.80
2019-03-18T05:58:11.043Z,3.70
2019-03-18T06:00:37.881Z,3.60
2019-03-18T06:03:04.397Z,3.60
2019-03-18T06:05:30.906Z,3.60
2019-03-18T06:07:57.410Z,3.60
2019-03-18T06:10:24.338Z,3.60
2019-03-18T06:12:50.780Z,3.50
2019-03-18T06:15:17.640Z,3.50
2019-03-18T06:18:04.003Z,3.40
2019-03-18T06:20:30.614Z,3.40
2019-03-18T06:22:57.542Z,3.40
2019-03-18T06:25:24.055Z,3.40
2019-03-18T06:27:50.578Z,3.40
2019-03-18T06:30:17.495Z,3.50
2019-03-18T06:32:44.118Z,3.40
2019-03-18T06:35:10.779Z,3.40
2019-03-18T06:37:37.402Z,3.50
2019-03-18T06:40:07.415Z,3.50
2019-03-18T06:42:33.957Z,3.60
2019-03-18T06:45:00.603Z,3.60
2019-03-18T06:47:27.233Z,3.60
2019-03-18T06:49:53.900Z,3.60
2019-03-18T06:52:20.518Z,3.60
2019-03-18T06:54:47.206Z,3.70
2019-03-18T06:57:14.058Z,3.70
2019-03-18T06:59:40.674Z,3.70
2019-03-18T07:02:07.194Z,3.80
2019-03-18T07:04:33.809Z,3.80
2019-03-18T07:07:00.421Z,3.80
2019-03-18T07:09:27.073Z,3.80
2019-03-18T07:11:53.713Z,3.60
2019-03-18T07:14:20.240Z,3.60
2019-03-18T07:16:46.765Z,3.60
2019-03-18T07:19:13.423Z,3.50
2019-03-18T07:21:39.837Z,3.40
2019-03-18T07:24:06.446Z,3.40
2019-03-18T07:26:33.289Z,3.40
2019-03-18T07:28:59.908Z,3.40
2019-03-18T07:31:26.551Z,3.40
2019-03-18T07:33:53.217Z,3.40
2019-03-18T07:36:19.845Z,3.50
2019-03-18T07:38:46.464Z,3.60
2019-03-18T07:41:13.407Z,3.70
2019-03-18T07:43:40.029Z,3.80
2019-03-18T07:46:26.419Z,3.90
2019-03-18T07:48:53.040Z,4.10
2019-03-18T07:51:19.662Z,4.20
2019-03-18T07:53:46.094Z,4.30
2019-03-18T07:56:12.725Z,4.40
2019-03-18T07:58:39.341Z,4.50
2019-03-18T08:01:06.005Z,4.60
2019-03-18T08:03:32.613Z,4.80
2019-03-18T08:05:59.330Z,4.90
2019-03-18T08:08:26.048Z,4.90
2019-03-18T08:10:52.970Z,5.00
2019-03-18T08:13:19.741Z,5.00
2019-03-18T08:15:46.392Z,5.00
2019-03-18T08:18:12.951Z,5.10
2019-03-18T08:20:39.466Z,5.20
2019-03-18T08:23:06.209Z,5.20
2019-03-18T08:25:33.021Z,5.30
2019-03-18T08:27:59.530Z,5.30
2019-03-18T08:30:26.049Z,5.40
2019-03-18T08:32:52.565Z,5.50
2019-03-18T08:35:19.198Z,5.60
2019-03-18T08:37:45.628Z,5.70
2019-03-18T08:40:12.249Z,5.80
2019-03-18T08:42:38.961Z,5.80
2019-03-18T08:45:08.233Z,5.80
2019-03-18T08:47:34.850Z,5.90
2019-03-18T08:50:01.468Z,5.90
2019-03-18T08:52:28.585Z,6.00
2019-03-18T08:54:55.404Z,6.00
2019-03-18T08:57:21.958Z,6.10
2019-03-18T08:59:48.618Z,6.20
2019-03-18T09:02:15.126Z,6.30
2019-03-18T09:04:41.638Z,6.40
2019-03-18T09:07:08.286Z,6.50
2019-03-18T09:09:34.902Z,6.60
2019-03-18T09:12:01.517Z,6.60
2019-03-18T09:14:28.310Z,6.70
2019-03-18T09:16:54.923Z,6.80
2019-03-18T09:19:21.214Z,6.90
2019-03-18T09:21:47.623Z,6.10
2019-03-18T09:24:14.240Z,6.90
2019-03-18T09:26:40.541Z,7.00
2019-03-18T09:29:06.946Z,7.10
2019-03-18T09:31:33.525Z,7.20
2019-03-18T09:33:59.938Z,7.30
2019-03-18T09:36:26.605Z,7.20
2019-03-18T09:38:53.011Z,7.20
2019-03-18T09:41:19.541Z,7.30
2019-03-18T09:43:46.092Z,7.30
2019-03-18T09:46:12.372Z,7.20
2019-03-18T09:48:38.674Z,7.30
2019-03-18T09:51:04.986Z,7.30
2019-03-18T09:53:31.384Z,7.40
2019-03-18T09:55:57.673Z,7.50
2019-03-18T09:58:24.512Z,7.50
2019-03-18T10:00:50.950Z,7.50
2019-03-18T10:03:17.337Z,7.60
2019-03-18T10:05:43.996Z,7.60
2019-03-18T10:08:10.788Z,7.70
2019-03-18T10:10:37.329Z,7.70
2019-03-18T10:13:03.886Z,7.90
2019-03-18T10:15:30.392Z,7.90
2019-03-18T10:17:57.020Z,8.00
2019-03-18T10:20:23.679Z,8.20
2019-03-18T10:22:50.086Z,8.20
2019-03-18T10:25:16.507Z,8.40
2019-03-18T10:27:43.258Z,8.40
2019-03-18T10:30:12.360Z,8.50
2019-03-18T10:32:38.646Z,8.60
2019-03-18T10:35:05.277Z,8.60
2019-03-18T10:37:31.674Z,8.80
2019-03-18T10:39:58.074Z,8.80
2019-03-18T10:42:24.615Z,8.80
2019-03-18T10:44:50.942Z,8.90
2019-03-18T10:47:17.236Z,9.00
2019-03-18T10:49:46.515Z,9.00
2019-03-18T10:52:11.756Z,9.10
2019-03-18T10:54:38.035Z,9.10
2019-03-18T10:57:04.620Z,9.20
2019-03-18T10:59:31.094Z,9.30
2019-03-18T11:01:57.526Z,9.40
2019-03-18T11:04:24.420Z,9.40
2019-03-18T11:06:50.926Z,9.50
2019-03-18T11:09:17.219Z,9.50
2019-03-18T11:11:43.940Z,9.60
2019-03-18T11:14:10.169Z,9.70
2019-03-18T11:16:36.464Z,9.80
2019-03-18T11:19:02.768Z,9.90
2019-03-18T11:21:29.080Z,9.80
2019-03-18T11:23:55.577Z,10.00
2019-03-18T11:26:22.235Z,9.90
2019-03-18T11:28:48.632Z,10.10
2019-03-18T11:31:15.190Z,10.20
2019-03-18T11:33:41.656Z,10.20
2019-03-18T11:36:08.085Z,10.30
2019-03-18T11:38:34.614Z,10.40
2019-03-18T11:41:00.982Z,10.50
2019-03-18T11:43:27.489Z,10.60
2019-03-18T11:45:53.998Z,10.70
2019-03-18T11:48:20.605Z,10.80
2019-03-18T11:50:46.999Z,10.90
2019-03-18T11:53:14.544Z,11.00
2019-03-18T11:55:41.442Z,11.00
2019-03-18T11:58:07.722Z,11.20
2019-03-18T12:00:34.779Z,11.30
2019-03-18T12:03:01.197Z,11.50
2019-03-18T12:05:27.978Z,11.50
2019-03-18T12:07:54.289Z,11.70
2019-03-18T12:10:20.952Z,11.80
2019-03-18T12:12:47.241Z,11.90
2019-03-18T12:15:15.261Z,12.00
2019-03-18T12:17:41.948Z,12.20
2019-03-18T12:20:23.215Z,12.30
2019-03-18T12:22:39.478Z,12.40
2019-03-18T12:25:07.439Z,12.50
2019-03-18T12:27:35.391Z,12.70
2019-03-18T12:30:08.274Z,12.80
2019-03-18T12:32:34.700Z,12.90
2019-03-18T12:35:01.241Z,13.00
2019-03-18T12:37:27.516Z,13.20
2019-03-18T12:39:53.812Z,13.30
2019-03-18T12:42:20.337Z,13.40
2019-03-18T12:44:46.778Z,13.50
2019-03-18T12:47:13.181Z,13.60
2019-03-18T12:49:39.580Z,13.70
2019-03-18T12:52:06.471Z,13.90
2019-03-18T12:54:32.756Z,14.00
2019-03-18T12:56:59.055Z,14.10
2019-03-18T12:59:25.477Z,14.30
2019-03-18T13:01:51.899Z,14.40
2019-03-18T13:04:18.284Z,14.60
2019-03-18T13:06:44.661Z,14.90
2019-03-18T13:09:11.046Z,15.10
2019-03-18T13:11:37.569Z,15.30
2019-03-18T13:14:04.572Z,15.60
2019-03-18T13:16:30.944Z,15.90
2019-03-18T13:18:57.565Z,16.30
2019-03-18T13:21:24.215Z,16.70
2019-03-18T13:23:50.726Z,17.00
2019-03-18T13:26:17.126Z,17.40
2019-03-18T13:28:43.632Z,18.00
2019-03-18T13:31:10.003Z,18.40
2019-03-18T13:33:36.458Z,18.70
2019-03-18T13:36:03.248Z,19.10
2019-03-18T13:38:29.972Z,19.40
2019-03-18T13:40:56.379Z,19.80
2019-03-18T13:43:23.139Z,20.40
2019-03-18T13:45:55.178Z,20.90
2019-03-18T13:48:18.239Z,21.30
2019-03-18T13:50:44.892Z,21.80
2019-03-18T13:53:11.291Z,22.20
2019-03-18T13:55:37.826Z,22.50
2019-03-18T13:58:04.336Z,22.40
2019-03-18T14:00:31.391Z,22.80
2019-03-18T14:02:57.951Z,23.20
2019-03-18T14:05:24.634Z,23.20
2019-03-18T14:08:00.368Z,23.70
2019-03-18T14:10:20.996Z,23.90
2019-03-18T14:12:47.661Z,24.00
2019-03-18T14:15:16.579Z,24.20
2019-03-18T14:17:42.977Z,24.50
2019-03-18T14:20:15.057Z,24.60
2019-03-18T14:22:41.471Z,24.90
2019-03-18T14:25:08.783Z,24.70
2019-03-18T14:27:35.085Z,24.50
2019-03-18T14:30:01.869Z,24.30
2019-03-18T14:32:28.625Z,24.40
2019-03-18T14:34:55.070Z,24.70
2019-03-18T14:37:21.350Z,25.00
2019-03-18T14:39:47.742Z,24.90
2019-03-18T14:42:14.462Z,24.70
2019-03-18T14:44:41.071Z,25.20
2019-03-18T14:47:07.360Z,24.90
2019-03-18T14:49:33.966Z,24.90
2019-03-18T14:52:00.264Z,24.90
2019-03-18T14:54:26.678Z,25.00
2019-03-18T14:56:53.009Z,25.10
2019-03-18T14:59:19.317Z,25.00
2019-03-18T15:01:45.843Z,25.30
2019-03-18T15:04:12.144Z,25.20
2019-03-18T15:06:38.646Z,25.40
2019-03-18T15:09:06.856Z,25.50
2019-03-18T15:11:33.152Z,25.70
2019-03-18T15:13:59.583Z,25.70
2019-03-18T15:16:26.651Z,25.80
2019-03-18T15:18:52.987Z,26.10
2019-03-18T15:21:19.280Z,25.90
2019-03-18T15:23:45.695Z,25.90
2019-03-18T15:26:12.070Z,25.80
2019-03-18T15:28:38.540Z,26.00
2019-03-18T15:31:04.845Z,26.10
2019-03-18T15:33:31.639Z,26.00
2019-03-18T15:35:57.938Z,25.90
2019-03-18T15:38:24.443Z,25.60
2019-03-18T15:40:51.165Z,25.70
2019-03-18T15:43:17.469Z,26.00
2019-03-18T15:45:43.765Z,26.00
2019-03-18T15:48:10.155Z,25.90
2019-03-18T15:50:36.580Z,25.90
2019-03-18T15:53:03.269Z,26.00
2019-03-18T15:55:29.722Z,25.60
2019-03-18T15:57:56.142Z,25.30
2019-03-18T16:00:24.351Z,25.20
2019-03-18T16:02:50.803Z,25.20
2019-03-18T16:05:17.103Z,25.20
2019-03-18T16:07:43.492Z,25.30
2019-03-18T16:10:15.005Z,25.40
2019-03-18T16:12:41.650Z,25.10
2019-03-18T16:15:10.571Z,25.00
2019-03-18T16:17:37.508Z,24.80
2019-03-18T16:20:07.407Z,24.80
2019-03-18T16:22:33.697Z,24.80
2019-03-18T16:25:00.037Z,24.70
2019-03-18T16:27:26.463Z,24.90
2019-03-18T16:29:52.963Z,24.80
2019-03-18T16:32:19.414Z,24.70
2019-03-18T16:34:45.954Z,24.70
2019-03-18T16:37:12.313Z,24.50
2019-03-18T16:39:38.642Z,24.50
2019-03-18T16:42:05.127Z,24.40
2019-03-18T16:44:31.897Z,24.10
2019-03-18T16:46:58.318Z,24.10
2019-03-18T16:49:24.732Z,24.00
2019-03-18T16:51:51.185Z,24.00
2019-03-18T16:54:17.616Z,24.00
2019-03-18T16:56:44.132Z,23.80
2019-03-18T16:59:10.425Z,23.70
2019-03-18T17:01:37.141Z,23.70
2019-03-18T17:04:03.437Z,23.60
2019-03-18T17:06:29.729Z,23.60
2019-03-18T17:08:56.195Z,23.60
2019-03-18T17:11:22.565Z,23.40
2019-03-18T17:13:48.928Z,23.50
2019-03-18T17:16:15.586Z,23.30
2019-03-18T17:18:42.199Z,23.00
2019-03-18T17:21:08.605Z,22.70
2019-03-18T17:23:35.250Z,22.70
2019-03-18T17:26:01.852Z,22.60
2019-03-18T17:28:28.143Z,22.20
2019-03-18T17:30:54.753Z,21.90
2019-03-18T17:33:21.111Z,21.40
2019-03-18T17:35:47.522Z,20.90
2019-03-18T17:38:13.957Z,20.70
2019-03-18T17:40:40.379Z,20.70
2019-03-18T17:43:07.041Z,20.30
2019-03-18T17:45:33.338Z,19.90
2019-03-18T17:47:59.745Z,19.60
2019-03-18T17:50:30.014Z,19.30
2019-03-18T17:53:02.876Z,18.90
2019-03-18T17:55:24.523Z,18.60
2019-03-18T17:57:50.933Z,18.50
2019-03-18T18:00:22.126Z,18.10
2019-03-18T18:02:48.416Z,17.70
2019-03-18T18:05:14.714Z,17.20
2019-03-18T18:07:41.366Z,16.80
2019-03-18T18:10:09.378Z,17.00
2019-03-18T18:12:35.800Z,16.90
2019-03-18T18:15:03.937Z,16.70
2019-03-18T18:17:30.243Z,16.50
2019-03-18T18:19:56.691Z,16.30
2019-03-18T18:22:23.239Z,16.10
2019-03-18T18:24:49.578Z,15.80
2019-03-18T18:27:15.861Z,15.70
2019-03-18T18:29:42.413Z,15.50
2019-03-18T18:32:09.257Z,15.30
2019-03-18T18:34:35.790Z,15.30
2019-03-18T18:37:02.743Z,15.20
2019-03-18T18:39:29.364Z,14.80
2019-03-18T18:41:55.977Z,14.70
2019-03-18T18:44:23.355Z,14.50
2019-03-18T18:46:50.002Z,14.50
2019-03-18T18:49:16.947Z,14.30
2019-03-18T18:51:44.186Z,14.30
2019-03-18T18:54:10.898Z,14.30
2019-03-18T18:56:37.628Z,14.20
2019-03-18T18:59:04.166Z,14.20
2019-03-18T19:01:30.793Z,14.00
2019-03-18T19:03:57.418Z,14.00
2019-03-18T19:06:27.194Z,13.90
2019-03-18T19:08:53.805Z,14.00
2019-03-18T19:11:20.421Z,13.90
2019-03-18T19:13:47.288Z,13.80
2019-03-18T19:16:14.295Z,13.70
2019-03-18T19:18:40.703Z,13.80
2019-03-18T19:21:07.577Z,13.70
2019-03-18T19:23:37.854Z,13.60
2019-03-18T19:26:02.873Z,13.60
2019-03-18T19:28:29.504Z,13.60
2019-03-18T19:30:56.015Z,13.60
2019-03-18T19:33:22.656Z,13.60
2019-03-18T19:35:49.316Z,13.60
2019-03-18T19:38:16.133Z,13.70
2019-03-18T19:40:42.760Z,13.60
2019-03-18T19:43:09.302Z,13.50
2019-03-18T19:45:35.916Z,13.50
2019-03-18T19:48:02.578Z,13.50
2019-03-18T19:50:30.831Z,13.50
2019-03-18T19:52:57.682Z,13.50
2019-03-18T19:55:24.083Z,13.40
2019-03-18T19:57:51.020Z,13.20
2019-03-18T20:00:21.903Z,13.10
2019-03-18T20:02:48.253Z,13.00
2019-03-18T20:05:16.516Z,13.00
2019-03-18T20:07:43.334Z,12.90
2019-03-18T20:10:11.941Z,12.70
2019-03-18T20:12:38.836Z,11.90
2019-03-18T20:15:08.385Z,12.50
2019-03-18T20:17:35.135Z,12.40
2019-03-18T20:20:02.075Z,12.30
2019-03-18T20:22:29.028Z,12.10
2019-03-18T20:24:55.636Z,12.10
2019-03-18T20:27:22.700Z,12.00
2019-03-18T20:29:49.302Z,12.00
2019-03-18T20:32:15.936Z,12.00
2019-03-18T20:34:42.637Z,11.90
2019-03-18T20:37:09.288Z,11.90
2019-03-18T20:39:35.648Z,11.90
2019-03-18T20:42:02.318Z,11.80
2019-03-18T20:44:28.918Z,11.70
2019-03-18T20:46:55.543Z,11.60
2019-03-18T20:49:22.397Z,11.50
2019-03-18T20:51:49.014Z,11.50
2019-03-18T20:54:15.626Z,11.40
2019-03-18T20:56:42.694Z,11.20
2019-03-18T20:59:09.320Z,11.10
2019-03-18T21:01:35.952Z,11.00
2019-03-18T21:04:02.621Z,11.00
2019-03-18T21:06:29.163Z,10.90
2019-03-18T21:08:55.694Z,10.80
2019-03-18T21:11:22.437Z,10.80
2019-03-18T21:13:57.079Z,10.80
2019-03-18T21:16:18.735Z,10.60
2019-03-18T21:18:45.579Z,10.20
2019-03-18T21:21:12.196Z,10.10
2019-03-18T21:23:39.133Z,10.10
2019-03-18T21:26:06.184Z,10.10
2019-03-18T21:28:40.871Z,10.10
2019-03-18T21:31:01.240Z,10.10
2019-03-18T21:33:27.763Z,10.10
2019-03-18T21:35:55.793Z,10.10
2019-03-18T21:38:22.774Z,10.00
2019-03-18T21:40:49.433Z,10.00
2019-03-18T21:43:15.955Z,9.90
2019-03-18T21:45:42.577Z,9.90
2019-03-18T21:48:09.625Z,10.00
2019-03-18T21:50:36.260Z,10.00
2019-03-18T21:53:03.189Z,9.90
2019-03-18T21:55:30.120Z,9.80
2019-03-18T21:57:56.717Z,9.60
2019-03-18T22:00:23.421Z,9.50
2019-03-18T22:02:50.075Z,9.50
2019-03-18T22:05:16.714Z,9.40
2019-03-18T22:07:43.367Z,9.30
2019-03-18T22:10:12.650Z,9.30
2019-03-18T22:12:39.158Z,9.20
2019-03-18T22:15:08.727Z,9.20
2019-03-18T22:17:35.390Z,9.20
2019-03-18T22:20:04.349Z,9.20
2019-03-18T22:22:30.960Z,9.20
2019-03-18T22:24:58.063Z,9.10
2019-03-18T22:27:24.686Z,9.10
2019-03-18T22:29:51.309Z,9.00
2019-03-18T22:32:18.112Z,8.90
2019-03-18T22:34:44.651Z,8.90
2019-03-18T22:37:11.169Z,8.90
2019-03-18T22:39:37.821Z,8.80
2019-03-18T22:42:04.442Z,8.70
2019-03-18T22:44:30.957Z,8.50
2019-03-18T22:46:57.598Z,8.40
2019-03-18T22:49:24.383Z,8.40
2019-03-18T22:51:50.999Z,8.50
2019-03-18T22:54:17.682Z,8.40
2019-03-18T22:56:44.543Z,8.50
2019-03-18T22:59:11.170Z,8.20
2019-03-18T23:01:38.108Z,8.40
2019-03-18T23:04:04.721Z,8.30
2019-03-18T23:06:31.358Z,8.20
2019-03-18T23:08:58.017Z,8.30
2019-03-18T23:11:24.659Z,8.10
2019-03-18T23:13:51.925Z,8.10
2019-03-18T23:16:18.582Z,7.80
2019-03-18T23:18:45.179Z,8.30
2019-03-18T23:21:11.805Z,7.40
2019-03-18T23:23:38.953Z,8.40
2019-03-18T23:26:05.544Z,8.40
2019-03-18T23:28:32.170Z,8.40
2019-03-18T23:30:58.788Z,8.20
2019-03-18T23:33:25.398Z,7.90
2019-03-18T23:35:51.909Z,7.90
2019-03-18T23:38:18.685Z,7.70
2019-03-18T23:40:45.191Z,7.70
2019-03-18T23:43:11.698Z,7.60
2019-03-18T23:45:38.250Z,7.60
2019-03-18T23:48:04.864Z,7.60
2019-03-18T23:50:31.481Z,7.70
2019-03-18T23:52:58.118Z,7.60
2019-03-18T23:55:24.754Z,7.80
2019-03-18T23:57:51.380Z,7.80
